Time;durP1;ratioP1;P1;durP2;ratioP2;P2;SDS_P1;SDS_P2;PMS_P1;PMS_P2;Temp;Humidity;BMP_temperature;BMP_pressure;BME280_temperature;BME280_humidity;BME280_pressure;Samples;Min_cycle;Max_cycle;Signal;HPM_P1;HPM_P2
2023/02/15 00:00:40;;;;;;;24.00;19.15;;;;;;;3.88;77.38;101699.84;10307793;28;20085;-65
2023/02/15 00:05:41;;;;;;;24.23;18.60;;;;;;;4.02;77.30;101699.41;10308995;28;20219;-67
2023/02/15 00:10:43;;;;;;;22.02;17.88;;;;;;;3.91;76.96;101676.03;10307938;28;20201;-65
2023/02/15 00:15:44;;;;;;;25.30;18.98;;;;;;;3.90;76.92;101666.38;10306818;28;20050;-65
2023/02/15 00:20:45;;;;;;;22.88;17.90;;;;;;;3.93;77.28;101675.97;10325445;28;20141;-65
2023/02/15 00:25:47;;;;;;;21.38;17.52;;;;;;;3.82;77.11;101666.63;10321914;28;20587;-66
2023/02/15 00:30:48;;;;;;;22.75;18.00;;;;;;;3.97;76.65;101673.22;10309566;28;20054;-65
2023/02/15 00:35:56;;;;;;;26.30;19.65;;;;;;;3.92;76.88;101666.34;10306308;28;20095;-66
2023/02/15 00:41:00;;;;;;;22.10;18.10;;;;;;;3.89;76.69;101672.59;10306030;28;20055;-66
2023/02/15 00:46:04;;;;;;;23.88;18.95;;;;;;;3.94;76.65;101667.19;10311197;28;20064;-66
2023/02/15 00:51:06;;;;;;;21.07;16.70;;;;;;;3.97;76.41;101661.81;10307513;28;20046;-68
2023/02/15 00:56:07;;;;;;;28.50;20.02;;;;;;;3.92;76.56;101663.72;10308359;28;20540;-66
2023/02/15 01:01:11;;;;;;;28.95;22.00;;;;;;;3.87;76.80;101662.09;10305212;28;20162;-65
2023/02/15 01:06:14;;;;;;;29.40;23.00;;;;;;;3.93;76.64;101654.91;10305243;28;20408;-65
2023/02/15 01:11:23;;;;;;;28.30;21.77;;;;;;;3.92;76.61;101651.41;10306520;28;20054;-66
2023/02/15 01:16:27;;;;;;;26.33;20.55;;;;;;;3.95;76.85;101663.63;10302766;28;20141;-67
2023/02/15 01:21:29;;;;;;;27.25;20.20;;;;;;;3.79;77.10;101643.00;10301698;28;20111;-66
2023/02/15 01:26:30;;;;;;;28.70;22.13;;;;;;;3.87;76.78;101627.84;10314102;28;21467;-67
2023/02/15 01:31:31;;;;;;;29.60;22.35;;;;;;;3.90;76.77;101634.78;10313979;28;20156;-66
2023/02/15 01:36:34;;;;;;;29.10;22.67;;;;;;;3.86;77.12;101633.16;10302084;28;20580;-66
2023/02/15 01:41:36;;;;;;;28.02;21.85;;;;;;;3.83;77.05;101633.25;10309032;28;20521;-66
2023/02/15 01:46:43;;;;;;;28.35;22.10;;;;;;;3.83;76.92;101628.84;10304742;28;20280;-66
2023/02/15 01:51:48;;;;;;;29.42;22.85;;;;;;;3.85;76.88;101619.13;10304311;28;20056;-66
2023/02/15 01:56:50;;;;;;;29.63;22.85;;;;;;;3.88;76.55;101621.66;10300588;28;20120;-66
2023/02/15 02:01:55;;;;;;;32.47;24.67;;;;;;;3.83;76.97;101623.59;10301687;28;20129;-66
2023/02/15 02:06:58;;;;;;;29.75;22.60;;;;;;;3.89;76.81;101612.84;10299039;28;20389;-66
2023/02/15 02:12:01;;;;;;;31.90;23.75;;;;;;;3.87;76.31;101619.94;10304622;28;20057;-67
2023/02/15 02:17:22;;;;;;;29.83;21.63;;;;;;;3.88;76.76;101616.38;10303888;28;20593;-67
2023/02/15 02:22:38;;;;;;;30.50;23.58;;;;;;;3.94;76.60;101606.59;10301768;28;20049;-66
2023/02/15 02:27:49;;;;;;;31.23;22.67;;;;;;;3.72;76.45;101581.78;10306360;28;20046;-66
2023/02/15 02:33:03;;;;;;;30.38;21.65;;;;;;;3.95;76.24;101603.03;10299007;28;20054;-66
2023/02/15 02:38:14;;;;;;;31.13;22.48;;;;;;;3.91;76.46;101604.03;10298838;28;20068;-66
2023/02/15 02:43:28;;;;;;;32.25;23.38;;;;;;;3.84;76.81;101601.59;10311715;28;20064;-65
2023/02/15 02:48:33;;;;;;;31.00;22.77;;;;;;;3.84;76.75;101603.34;10327236;28;20046;-66
2023/02/15 02:53:35;;;;;;;34.67;24.73;;;;;;;3.75;76.88;101596.59;10297243;28;20058;-66
2023/02/15 02:58:46;;;;;;;30.15;23.80;;;;;;;3.72;77.41;101596.69;10298057;28;20505;-66
2023/02/15 03:03:51;;;;;;;30.17;23.40;;;;;;;3.61;77.14;101554.03;10300083;28;20348;-66
2023/02/15 03:09:01;;;;;;;30.42;23.50;;;;;;;3.60;77.01;101547.03;10303408;28;20058;-66
2023/02/15 03:14:02;;;;;;;32.45;24.23;;;;;;;3.75;76.84;101557.09;10305029;28;20046;-66
2023/02/15 03:19:16;;;;;;;30.15;21.85;;;;;;;3.88;76.70;101574.22;10309641;28;20060;-66
2023/02/15 03:24:25;;;;;;;33.43;24.63;;;;;;;3.84;76.66;101567.34;10303562;28;20657;-65
2023/02/15 03:29:29;;;;;;;34.28;23.25;;;;;;;3.81;77.02;101564.78;10305387;28;20042;-66
2023/02/15 03:34:31;;;;;;;33.38;24.50;;;;;;;3.78;77.11;101562.25;10300103;28;20061;-67
2023/02/15 03:39:49;;;;;;;33.63;25.27;;;;;;;3.74;77.19;101550.13;10297361;28;20539;-67
2023/02/15 03:44:56;;;;;;;32.58;23.83;;;;;;;3.84;77.20;101567.34;10303912;28;20061;-66
2023/02/15 03:51:33;;;;;;;32.78;23.70;;;;;;;3.70;77.93;101574.81;10306324;28;20077;-65
2023/02/15 03:55:27;;;;;;;32.90;24.42;;;;;;;3.67;78.43;101569.66;10305464;28;20147;-65
2023/02/15 04:05:55;;;;;;;32.13;23.42;;;;;;;3.53;78.88;101549.84;10308434;28;20065;-65
2023/02/15 04:10:56;;;;;;;36.53;25.70;;;;;;;3.49;79.08;101550.84;10304404;28;20545;-66
2023/02/15 04:16:04;;;;;;;34.83;23.65;;;;;;;3.66;79.10;101562.66;10307226;28;20045;-66
2023/02/15 04:26:27;;;;;;;36.00;24.10;;;;;;;3.56;79.31;101548.91;10304858;28;20113;-65
2023/02/15 04:31:29;;;;;;;36.83;25.65;;;;;;;3.49;79.57;101542.09;10307059;28;20062;-65
2023/02/15 04:36:30;;;;;;;34.85;24.77;;;;;;;3.21;80.69;101515.75;10303236;28;20161;-66
2023/02/15 04:41:32;;;;;;;37.55;25.00;;;;;;;3.35;80.77;101532.00;10301514;28;20148;-66
2023/02/15 04:46:34;;;;;;;38.47;26.30;;;;;;;3.40;81.08;101543.25;10306368;28;20435;-65
2023/02/15 04:51:36;;;;;;;42.00;29.20;;;;;;;3.27;81.70;101529.59;10305013;28;20038;-65
2023/02/15 04:56:38;;;;;;;43.25;27.73;;;;;;;3.36;81.87;101544.22;10306226;28;20046;-65
2023/02/15 05:01:40;;;;;;;39.50;27.45;;;;;;;3.39;81.44;101523.06;10308804;28;20057;-65
2023/02/15 05:06:41;;;;;;;41.30;28.67;;;;;;;3.35;81.60;101518.84;10314711;28;20322;-66
2023/02/15 05:11:43;;;;;;;40.45;28.80;;;;;;;3.47;81.82;101538.66;10327610;28;21441;-66
2023/02/15 05:16:44;;;;;;;42.60;28.13;;;;;;;3.39;81.71;101538.03;10306497;28;20081;-66
2023/02/15 05:21:46;;;;;;;37.05;27.17;;;;;;;3.44;81.81;101533.47;10303629;28;20219;-65
2023/02/15 05:32:07;;;;;;;43.78;28.45;;;;;;;3.58;81.78;101530.44;10306510;28;20131;-66
2023/02/15 05:37:09;;;;;;;39.35;25.98;;;;;;;3.42;82.08;101520.34;10308000;28;20320;-66
2023/02/15 05:42:10;;;;;;;37.13;26.58;;;;;;;3.54;82.14;101522.63;10305125;28;23026;-66
2023/02/15 05:47:11;;;;;;;43.88;28.42;;;;;;;3.27;82.92;101503.28;10300672;28;20051;-66
2023/02/15 05:52:13;;;;;;;44.42;27.83;;;;;;;3.44;83.07;101531.72;10306998;28;20073;-66
2023/02/15 05:57:14;;;;;;;37.17;27.25;;;;;;;3.47;82.75;101531.63;10306825;28;20064;-66
2023/02/15 06:02:15;;;;;;;37.17;26.23;;;;;;;3.38;83.68;101537.16;10306619;28;20078;-66
2023/02/15 06:07:17;;;;;;;37.45;25.98;;;;;;;3.37;83.98;101535.44;10299692;28;20050;-66
2023/02/15 06:12:18;;;;;;;37.05;24.45;;;;;;;3.47;83.68;101536.88;10299399;28;20148;-65
2023/02/15 06:17:21;;;;;;;38.17;25.60;;;;;;;3.33;83.66;101507.47;10311544;28;20583;-66
2023/02/15 06:22:22;;;;;;;37.15;25.67;;;;;;;3.56;83.34;101542.75;10305708;28;20045;-65
2023/02/15 06:27:24;;;;;;;39.55;25.40;;;;;;;3.50;83.66;101542.06;10306940;28;20258;-66
2023/02/15 06:32:29;;;;;;;37.78;24.77;;;;;;;3.43;84.00;101537.88;10306851;28;20104;-67
2023/02/15 06:37:30;;;;;;;;;;;;;;;3.16;84.56;101519.38;10310712;28;20120;-66
2023/02/15 06:42:32;;;;;;;35.75;23.45;;;;;;;3.46;84.67;101547.47;10306998;28;20414;-66
2023/02/15 06:47:33;;;;;;;33.63;24.88;;;;;;;3.42;84.55;101553.72;10305053;28;20058;-66
2023/02/15 06:52:34;;;;;;;40.38;24.65;;;;;;;3.52;84.27;101557.81;10308569;28;20073;-66
2023/02/15 06:57:36;;;;;;;33.28;23.73;;;;;;;3.39;84.60;101549.41;10306880;28;20073;-66
2023/02/15 07:02:37;;;;;;;35.70;23.17;;;;;;;3.38;84.87;101557.34;10304223;28;20057;-66
2023/02/15 07:07:39;;;;;;;30.80;23.27;;;;;;;3.47;85.10;101584.28;10293981;28;20243;-66
2023/02/15 07:12:44;;;;;;;32.00;22.60;;;;;;;3.34;85.71;101582.91;10302505;28;20477;-65
2023/02/15 07:17:46;;;;;;;32.80;22.60;;;;;;;3.30;85.91;101579.50;10312202;28;20056;-69
2023/02/15 07:22:48;;;;;;;32.05;21.77;;;;;;;3.11;86.99;101566.00;10319857;28;20050;-65
2023/02/15 07:27:56;;;;;;;33.05;23.77;;;;;;;3.23;87.42;101584.97;10317107;28;20050;-66
2023/02/15 07:38:18;;;;;;;34.95;22.92;;;;;;;3.40;86.86;101558.19;10313984;28;20586;-67
2023/02/15 07:43:20;;;;;;;33.17;21.88;;;;;;;3.54;86.57;101567.41;10311464;28;20338;-65
2023/02/15 07:48:22;;;;;;;38.00;24.77;;;;;;;3.45;86.43;101556.25;10301038;28;20743;-65
2023/02/15 07:53:25;;;;;;;35.95;23.90;;;;;;;3.28;86.66;101543.59;10307173;28;20124;-65
2023/02/15 07:58:50;;;;;;;31.48;21.10;;;;;;;3.27;87.37;101565.56;10318725;28;20479;-65
2023/02/15 08:03:49;;;;;;;28.75;20.23;;;;;;;3.38;86.95;101558.22;10306197;28;20306;-65
2023/02/15 08:08:50;;;;;;;31.67;21.98;;;;;;;3.35;86.73;101569.69;10311107;28;20053;-65
2023/02/15 08:14:04;;;;;;;25.80;18.98;;;;;;;3.47;86.22;101563.22;10307888;28;20058;-65
2023/02/15 08:19:15;;;;;;;25.83;17.93;;;;;;;3.48;85.68;101557.03;10306829;28;20057;-65
2023/02/15 08:24:22;;;;;;;23.98;18.05;;;;;;;3.46;84.51;101552.72;10313181;28;20129;-64
2023/02/15 08:29:26;;;;;;;29.67;16.70;;;;;;;3.29;83.71;101556.72;10308745;28;20135;-64
2023/02/15 08:34:36;;;;;;;20.60;14.67;;;;;;;3.00;85.25;101558.44;10313237;28;20139;-64
2023/02/15 08:39:37;;;;;;;20.27;14.55;;;;;;;2.95;85.62;101554.19;10306225;28;20350;-66
2023/02/15 08:44:39;;;;;;;21.33;15.80;;;;;;;3.10;85.93;101552.91;10307372;28;20053;-65
2023/02/15 08:49:40;;;;;;;21.17;15.70;;;;;;;3.34;84.33;101546.06;10314248;28;20599;-66
2023/02/15 08:54:42;;;;;;;20.70;15.35;;;;;;;2.82;85.00;101543.13;10306081;28;20056;-65
2023/02/15 08:59:44;;;;;;;21.15;15.02;;;;;;;3.15;84.55;101543.09;10303051;28;20115;-65
2023/02/15 09:04:46;;;;;;;18.02;14.45;;;;;;;3.11;83.64;101523.91;10308863;28;20066;-65
2023/02/15 09:09:47;;;;;;;17.10;14.18;;;;;;;3.15;82.65;101535.19;10305211;28;20216;-65
2023/02/15 09:14:48;;;;;;;16.23;13.73;;;;;;;3.05;82.48;101529.34;10305247;28;20346;-65
2023/02/15 09:19:50;;;;;;;15.65;12.73;;;;;;;3.08;82.64;101534.53;10304552;28;20054;-65
2023/02/15 09:24:51;;;;;;;16.92;13.80;;;;;;;3.05;82.14;101533.72;10304286;28;20406;-65
2023/02/15 09:29:53;;;;;;;16.63;13.40;;;;;;;2.98;82.72;101506.75;10301269;28;20061;-65
2023/02/15 09:34:54;;;;;;;16.85;13.27;;;;;;;3.03;82.37;101519.78;10306816;28;20056;-64
2023/02/15 09:39:55;;;;;;;15.23;12.50;;;;;;;2.85;83.41;101505.38;10304075;28;20045;-67
2023/02/15 09:45:03;;;;;;;14.07;12.48;;;;;;;2.96;82.53;101521.72;10303581;28;20054;-65
2023/02/15 09:50:12;;;;;;;16.33;12.57;;;;;;;2.76;81.47;101499.50;10304625;28;20202;-66
2023/02/15 09:55:24;;;;;;;16.80;12.20;;;;;;;2.96;82.20;101519.09;10328224;28;20050;-66
2023/02/15 10:00:47;;;;;;;14.63;11.65;;;;;;;3.09;81.46;101525.72;10305167;28;20057;-65
2023/02/15 10:06:16;;;;;;;14.23;11.50;;;;;;;3.15;80.15;101530.81;10301283;28;20038;-66
2023/02/15 10:11:43;;;;;;;12.90;10.57;;;;;;;3.10;79.36;101537.13;10302692;28;20056;-65
2023/02/15 10:17:12;;;;;;;15.23;12.93;;;;;;;3.07;79.25;101539.84;10307229;28;20061;-66
2023/02/15 10:22:18;;;;;;;14.70;11.27;;;;;;;3.07;79.11;101543.31;10304563;28;20134;-68
2023/02/15 10:27:21;;;;;;;15.32;12.90;;;;;;;3.17;78.83;101539.50;10296740;28;20570;-67
2023/02/15 10:32:29;;;;;;;16.67;13.38;;;;;;;3.18;79.39;101521.94;10302740;28;20045;-68
2023/02/15 10:37:45;;;;;;;19.38;15.80;;;;;;;3.19;79.31;101532.44;10301221;28;20501;-67
2023/02/15 10:42:52;;;;;;;20.48;15.35;;;;;;;3.11;78.80;101504.66;10300086;28;20242;-65
2023/02/15 10:48:15;;;;;;;19.85;15.02;;;;;;;3.45;78.75;101522.91;10306025;28;20502;-67
2023/02/15 10:53:52;;;;;;;18.17;15.63;;;;;;;3.34;78.54;101517.09;10309137;28;20053;-67
2023/02/15 10:59:12;;;;;;;17.98;14.05;;;;;;;3.32;78.46;101516.31;10312110;28;20274;-67
2023/02/15 11:04:16;;;;;;;17.13;14.35;;;;;;;3.21;79.33;101521.00;10311636;28;20136;-66
2023/02/15 11:09:21;;;;;;;16.67;13.77;;;;;;;3.29;79.66;101521.66;10311979;28;20567;-68
2023/02/15 11:14:44;;;;;;;16.98;14.25;;;;;;;3.49;78.77;101518.41;10308582;28;20151;-66
2023/02/15 11:19:52;;;;;;;21.00;16.15;;;;;;;3.61;78.23;101509.28;10308701;28;20446;-66
2023/02/15 11:24:54;;;;;;;20.30;15.85;;;;;;;3.57;78.50;101507.63;10318973;28;20139;-68
2023/02/15 11:30:04;;;;;;;21.00;16.10;;;;;;;3.70;78.76;101511.59;10306070;28;20199;-67
2023/02/15 11:35:11;;;;;;;19.92;16.13;;;;;;;3.68;78.43;101506.38;10303398;28;20053;-65
2023/02/15 11:40:30;;;;;;;22.73;16.88;;;;;;;3.75;78.47;101504.41;10313872;28;20072;-66
2023/02/15 11:45:36;;;;;;;24.85;17.63;;;;;;;3.81;77.90;101485.78;10311077;28;20053;-68
2023/02/15 11:50:38;;;;;;;24.70;18.23;;;;;;;4.03;77.34;101493.00;10302526;28;20042;-67
2023/02/15 11:55:42;;;;;;;24.38;18.50;;;;;;;3.89;78.02;101481.13;10307758;28;20404;-66
2023/02/15 12:00:49;;;;;;;31.13;22.60;;;;;;;3.92;77.67;101487.19;10307192;28;20073;-66
2023/02/15 12:05:58;;;;;;;31.92;23.90;;;;;;;3.84;78.33;101466.38;10312927;28;20308;-65
2023/02/15 12:11:15;;;;;;;32.70;24.45;;;;;;;3.85;78.31;101468.13;10312980;28;20501;-67
2023/02/15 12:16:16;;;;;;;34.30;24.05;;;;;;;3.90;77.87;101466.19;10312016;28;20157;-67
2023/02/15 12:21:33;;;;;;;30.75;23.63;;;;;;;3.79;78.32;101448.09;10318783;28;20066;-66
2023/02/15 12:26:36;;;;;;;29.67;21.13;;;;;;;3.93;77.62;101463.44;10321013;28;20105;-66
2023/02/15 12:31:41;;;;;;;30.08;22.08;;;;;;;3.93;77.87;101460.81;10309928;28;20342;-67
2023/02/15 12:36:50;;;;;;;;;;;;;;;3.99;78.12;101449.19;10308802;28;20042;-67
2023/02/15 12:41:55;;;;;;;34.05;24.60;;;;;;;3.97;78.04;101445.78;10306409;28;19935;-65
2023/02/15 12:47:19;;;;;;;32.10;22.75;;;;;;;3.98;77.73;101429.03;10312668;28;20053;-66
2023/02/15 12:52:20;;;;;;;31.60;23.27;;;;;;;4.11;77.84;101427.69;10315185;28;20432;-66
2023/02/15 12:57:25;;;;;;;32.80;24.10;;;;;;;4.22;77.28;101422.94;10309983;28;20049;-65
2023/02/15 13:02:44;;;;;;;37.38;25.25;;;;;;;4.04;77.05;101400.72;10308736;28;20153;-66
2023/02/15 13:07:50;;;;;;;37.33;24.98;;;;;;;4.08;77.96;101406.72;10302787;28;20541;-65
2023/02/15 13:12:54;;;;;;;37.05;25.70;;;;;;;4.20;77.78;101390.50;10305894;28;20045;-67
2023/02/15 13:17:57;;;;;;;36.22;25.45;;;;;;;4.32;77.33;101377.78;10306211;28;20062;-66
2023/02/15 13:23:04;;;;;;;37.13;26.65;;;;;;;4.37;76.41;101387.25;10306233;28;20042;-65
2023/02/15 13:28:13;;;;;;;39.20;25.63;;;;;;;4.27;76.39;101353.38;10303102;28;20049;-66
2023/02/15 13:33:26;;;;;;;39.75;26.85;;;;;;;4.48;76.04;101371.03;10299303;28;20057;-65
2023/02/15 13:38:51;;;;;;;40.97;28.77;;;;;;;4.50;76.32;101365.69;10298887;28;20567;-64
2023/02/15 13:44:21;;;;;;;37.95;28.70;;;;;;;4.65;75.92;101359.84;10294502;28;20153;-66
2023/02/15 13:49:49;;;;;;;39.03;29.33;;;;;;;4.57;76.08;101360.13;10303212;28;20054;-65
2023/02/15 13:55:21;;;;;;;36.15;27.02;;;;;;;4.53;76.54;101361.16;10302877;28;20042;-64
2023/02/15 14:00:40;;;;;;;39.55;29.60;;;;;;;4.38;76.58;101352.06;10298333;28;20049;-61
2023/02/15 14:05:50;;;;;;;42.88;28.83;;;;;;;4.39;76.44;101337.94;10299760;28;20684;-67
2023/02/15 14:11:05;;;;;;;39.38;27.15;;;;;;;4.56;76.57;101347.00;10306930;28;20703;-65
2023/02/15 14:16:19;;;;;;;39.88;28.02;;;;;;;4.58;76.03;101342.53;10297995;28;20054;-66
2023/02/15 14:21:34;;;;;;;40.77;29.13;;;;;;;4.53;76.36;101315.47;10298672;28;20204;-65
2023/02/15 14:26:53;;;;;;;44.80;31.83;;;;;;;4.56;76.06;101334.69;10298521;28;20054;-66
2023/02/15 14:32:03;;;;;;;43.35;29.73;;;;;;;4.63;76.18;101327.41;10303696;28;20045;-65
2023/02/15 14:37:05;;;;;;;44.38;30.98;;;;;;;4.31;76.18;101270.59;10302204;28;20304;-67
2023/02/15 14:42:33;;;;;;;41.42;30.35;;;;;;;4.56;77.01;101315.34;10321286;28;20496;-67
2023/02/15 14:47:43;;;;;;;47.42;31.70;;;;;;;4.54;76.76;101318.06;10302382;28;20041;-68
2023/02/15 14:53:38;;;;;;;45.17;30.83;;;;;;;4.58;77.39;101327.56;10301439;28;20148;-68
2023/02/15 14:58:52;;;;;;;44.13;29.88;;;;;;;4.67;76.72;101320.22;10247796;28;20046;-67
2023/02/15 15:03:57;;;;;;;40.65;30.58;;;;;;;4.55;76.50;101311.88;10303996;28;20116;-68
2023/02/15 15:09:00;;;;;;;;;;;;;;;4.50;77.46;101316.44;10300816;28;20137;-67
2023/02/15 15:14:03;;;;;;;42.92;29.02;;;;;;;4.47;77.27;101302.53;10306619;28;19925;-64
2023/02/15 15:19:10;;;;;;;44.45;31.02;;;;;;;4.51;77.27;101310.25;10306836;28;20298;-66
2023/02/15 15:24:37;;;;;;;42.22;30.60;;;;;;;4.41;78.04;101324.72;10306748;28;20077;-65
2023/02/15 15:29:40;;;;;;;46.42;32.97;;;;;;;4.48;78.49;101322.72;10300082;28;20054;-68
2023/02/15 15:35:02;;;;;;;47.53;30.55;;;;;;;4.52;78.18;101308.47;10300483;28;20053;-67
2023/02/15 15:40:07;;;;;;;47.80;30.98;;;;;;;4.50;78.46;101308.53;10308918;28;20334;-69
2023/02/15 15:45:33;;;;;;;42.05;30.67;;;;;;;4.07;78.82;101281.19;10311939;28;20046;-67
2023/02/15 15:50:40;;;;;;;49.03;33.45;;;;;;;4.32;79.06;101303.97;10312466;28;20171;-68
2023/02/15 15:55:42;;;;;;;49.38;33.95;;;;;;;4.37;78.91;101294.13;10308809;28;20050;-66
2023/02/15 16:01:08;;;;;;;51.67;33.63;;;;;;;4.47;78.63;101311.28;10306777;28;20137;-67
2023/02/15 16:06:14;;;;;;;50.70;34.03;;;;;;;4.35;79.77;101306.47;10304369;28;20088;-70
2023/02/15 16:11:23;;;;;;;49.38;33.50;;;;;;;4.38;79.92;101309.00;10309376;28;20254;-69
2023/02/15 16:16:27;;;;;;;54.05;35.38;;;;;;;4.29;80.23;101304.94;10308938;28;20072;-66
2023/02/15 16:21:31;;;;;;;;;;;;;;;4.37;80.04;101296.75;10307387;28;20046;-68
2023/02/15 16:26:57;;;;;;;54.08;35.10;;;;;;;4.31;80.51;101308.41;10307036;28;19921;-67
2023/02/15 16:32:00;;;;;;;53.65;34.72;;;;;;;4.26;80.90;101299.78;10305624;28;20053;-65
2023/02/15 16:37:19;;;;;;;53.58;34.85;;;;;;;4.30;81.21;101301.38;10306748;28;20435;-66
2023/02/15 16:42:21;;;;;;;57.80;39.63;;;;;;;4.32;81.17;101312.72;10306351;28;20174;-65
2023/02/15 16:47:27;;;;;;;55.00;37.00;;;;;;;4.09;82.36;101313.59;10301915;28;20420;-66
2023/02/15 16:52:29;;;;;;;51.75;34.70;;;;;;;4.06;82.56;101297.88;10302064;28;20639;-63
2023/02/15 16:57:35;;;;;;;58.25;41.17;;;;;;;3.94;83.20;101293.94;10304966;28;20420;-64
2023/02/15 17:02:36;;;;;;;59.72;39.38;;;;;;;4.03;83.30;101298.00;10304646;28;20172;-66
2023/02/15 17:08:12;;;;;;;59.95;40.30;;;;;;;4.01;83.67;101305.13;10327543;28;20057;-64
2023/02/15 17:13:15;;;;;;;61.05;40.17;;;;;;;4.02;83.77;101312.09;10300792;28;20122;-65
2023/02/15 17:18:22;;;;;;;63.35;40.53;;;;;;;3.96;84.17;101313.16;10304442;28;20189;-63
2023/02/15 17:23:42;;;;;;;61.53;39.38;;;;;;;3.99;84.20;101325.38;10310262;28;20085;-64
2023/02/15 17:28:50;;;;;;;58.58;39.03;;;;;;;3.96;83.43;101312.31;10305331;28;20077;-64
2023/02/15 17:33:54;;;;;;;56.25;38.22;;;;;;;4.00;83.18;101321.84;10305151;28;20123;-64
2023/02/15 17:39:07;;;;;;;61.00;40.88;;;;;;;4.05;82.71;101322.50;10304359;28;20503;-64
2023/02/15 17:44:13;;;;;;;;;;;;;;;4.10;82.68;101325.84;10309786;28;20123;-64
2023/02/15 17:49:26;;;;;;;49.28;34.83;;;;;;;3.93;82.81;101321.16;10306420;28;19933;-64
2023/02/15 18:15:55;;;;;;;53.03;37.53;;;;;;;4.09;82.41;101316.22;10303829;28;20366;-64
2023/02/15 18:20:56;;;;;;;51.10;38.45;;;;;;;4.07;82.19;101300.47;10301351;28;20060;-63
2023/02/15 18:25:58;;;;;;;56.35;39.50;;;;;;;4.06;82.40;101311.91;10300678;28;20137;-64
2023/02/15 18:30:59;;;;;;;56.22;39.83;;;;;;;3.80;83.74;101312.88;10302250;28;20434;-64
2023/02/15 18:36:05;;;;;;;54.08;40.33;;;;;;;3.86;83.80;101317.91;10301220;28;20053;-64
2023/02/15 18:41:06;;;;;;;79.53;69.75;;;;;;;3.81;83.08;101309.28;10304134;28;20127;-64
2023/02/15 18:46:08;;;;;;;52.28;38.83;;;;;;;3.78;83.27;101300.66;10309319;28;20053;-65
2023/02/15 18:51:19;;;;;;;51.47;37.47;;;;;;;3.76;83.60;101305.13;10303975;28;20050;-65
2023/02/15 18:56:21;;;;;;;53.08;39.22;;;;;;;3.79;83.36;101316.41;10304467;28;20069;-63
2023/02/15 19:01:23;;;;;;;49.38;37.17;;;;;;;3.45;83.65;101272.84;10298941;28;20528;-65
2023/02/15 19:06:25;;;;;;;47.55;35.60;;;;;;;3.60;84.00;101320.59;10302083;28;20067;-65
2023/02/15 19:11:27;;;;;;;49.42;35.30;;;;;;;3.64;83.76;101317.78;10303693;28;20054;-64
2023/02/15 19:16:32;;;;;;;80.32;71.78;;;;;;;3.57;84.40;101311.00;10305278;28;20485;-63
2023/02/15 19:21:34;;;;;;;52.23;39.43;;;;;;;3.63;84.12;101305.53;10303734;28;20253;-64
2023/02/15 19:26:39;;;;;;;48.95;35.92;;;;;;;3.77;84.04;101301.56;10310836;28;21763;-64
2023/02/15 19:31:46;;;;;;;50.35;36.72;;;;;;;3.89;83.21;101315.16;10327372;28;20144;-65
2023/02/15 19:36:50;;;;;;;52.75;38.28;;;;;;;3.65;83.80;101308.16;10306837;28;20061;-67
2023/02/15 19:41:52;;;;;;;41.47;31.47;;;;;;;3.64;83.82;101322.22;10311351;28;20113;-66
2023/02/15 19:46:54;;;;;;;49.60;34.85;;;;;;;3.48;84.53;101325.38;10312838;28;20421;-67
2023/02/15 19:51:57;;;;;;;50.97;35.13;;;;;;;3.50;85.22;101326.19;10307557;28;20450;-67
2023/02/15 19:56:59;;;;;;;46.97;34.33;;;;;;;3.47;84.55;101305.22;10309425;28;20067;-66
2023/02/15 20:02:00;;;;;;;46.85;33.67;;;;;;;3.47;84.62;101321.00;10315532;28;20468;-64
2023/02/15 20:07:08;;;;;;;87.22;59.42;;;;;;;3.50;84.35;101315.66;10319194;28;20054;-65
2023/02/15 20:12:28;;;;;;;50.70;36.97;;;;;;;3.66;83.81;101323.88;10314507;28;20412;-65
2023/02/15 20:17:30;;;;;;;54.50;37.55;;;;;;;3.55;83.93;101312.84;10308333;28;20106;-66
2023/02/15 20:22:32;;;;;;;57.30;42.08;;;;;;;3.56;84.52;101333.00;10308504;28;20081;-66
2023/02/15 20:27:36;;;;;;;53.83;38.17;;;;;;;3.60;84.71;101325.84;10310213;28;20368;-66
2023/02/15 20:32:37;;;;;;;48.88;36.28;;;;;;;3.73;83.75;101321.88;10312554;28;20132;-64
2023/02/15 20:37:39;;;;;;;49.53;35.88;;;;;;;3.68;83.63;101311.50;10312312;28;20053;-67
2023/02/15 20:42:40;;;;;;;52.85;37.08;;;;;;;3.73;83.16;101316.63;10309583;28;20077;-65
2023/02/15 20:47:47;;;;;;;48.67;34.67;;;;;;;3.70;83.16;101311.47;10316547;28;20189;-66
2023/02/15 20:52:50;;;;;;;49.85;36.10;;;;;;;3.77;83.41;101328.78;10309711;28;20474;-65
2023/02/15 20:57:52;;;;;;;48.03;34.38;;;;;;;3.62;83.82;101318.75;10307838;28;20054;-66
2023/02/15 21:02:59;;;;;;;51.80;35.20;;;;;;;3.63;84.16;101317.84;10309049;28;20278;-66
2023/02/15 21:08:00;;;;;;;51.80;35.58;;;;;;;3.41;84.70;101297.53;10308786;28;20128;-64
2023/02/15 21:13:03;;;;;;;54.20;37.35;;;;;;;3.66;84.24;101305.47;10313871;28;20054;-66
2023/02/15 21:18:14;;;;;;;52.80;34.33;;;;;;;3.67;83.90;101317.69;10312927;28;20097;-66
2023/02/15 21:23:19;;;;;;;54.53;37.08;;;;;;;3.60;84.04;101321.44;10305058;28;20353;-65
2023/02/15 21:28:23;;;;;;;49.83;35.00;;;;;;;3.56;84.15;101303.16;10310810;28;20046;-65
2023/02/15 21:33:25;;;;;;;46.97;34.10;;;;;;;3.50;84.12;101289.31;10306666;28;20185;-66
2023/02/15 21:38:29;;;;;;;57.08;38.30;;;;;;;3.67;84.23;101324.75;10310023;28;20125;-64
2023/02/15 21:48:51;;;;;;;58.78;37.65;;;;;;;3.66;83.96;101307.22;10313337;28;20188;-65
2023/02/15 21:53:52;;;;;;;57.70;38.22;;;;;;;3.82;83.76;101326.81;10316324;28;20085;-66
2023/02/15 21:58:53;;;;;;;51.45;37.45;;;;;;;3.68;84.10;101329.09;10313220;28;20053;-64
2023/02/15 22:03:57;;;;;;;53.03;37.03;;;;;;;3.72;84.31;101330.69;10313301;28;20135;-65
2023/02/15 22:08:58;;;;;;;52.78;34.83;;;;;;;3.63;84.11;101329.22;10309535;28;20116;-67
2023/02/15 22:14:00;;;;;;;51.45;35.03;;;;;;;3.60;84.33;101323.22;10313626;28;20586;-65
2023/02/15 22:19:02;;;;;;;51.50;33.85;;;;;;;3.52;84.83;101312.97;10306865;28;20131;-65
2023/02/15 22:24:04;;;;;;;50.83;36.58;;;;;;;3.56;85.04;101318.97;10306913;28;20050;-65
2023/02/15 22:29:05;;;;;;;50.88;36.20;;;;;;;3.54;84.98;101306.72;10306296;28;20080;-64
2023/02/15 22:34:23;;;;;;;51.78;36.42;;;;;;;3.52;85.23;101308.53;10305839;28;20532;-64
2023/02/15 22:39:25;;;;;;;55.13;36.40;;;;;;;3.58;85.29;101309.25;10306740;28;20211;-65
2023/02/15 22:44:30;;;;;;;53.08;36.80;;;;;;;3.58;85.20;101306.63;10308966;28;20053;-65
2023/02/15 22:49:32;;;;;;;55.13;36.08;;;;;;;3.36;84.95;101267.84;10305305;28;20121;-64
2023/02/15 22:54:33;;;;;;;54.25;35.65;;;;;;;3.66;84.75;101310.72;10307454;28;20137;-64
2023/02/15 22:59:35;;;;;;;56.20;37.75;;;;;;;3.48;84.99;101296.41;10310194;28;20054;-65
2023/02/15 23:04:36;;;;;;;45.30;34.05;;;;;;;3.61;84.78;101303.88;10306348;28;20562;-65
2023/02/15 23:09:37;;;;;;;55.42;36.42;;;;;;;3.72;84.55;101293.81;10308010;28;20319;-66
2023/02/15 23:14:39;;;;;;;48.85;34.42;;;;;;;3.74;84.33;101299.03;10303442;28;20106;-64
2023/02/15 23:19:40;;;;;;;49.83;34.30;;;;;;;3.72;84.43;101304.34;10305140;28;20144;-65
2023/02/15 23:24:45;;;;;;;49.78;33.38;;;;;;;3.66;84.50;101294.03;10307243;28;20046;-65
2023/02/15 23:29:46;;;;;;;50.00;34.05;;;;;;;3.54;85.30;101290.06;10305468;28;20050;-65
2023/02/15 23:34:47;;;;;;;49.97;34.15;;;;;;;3.52;85.72;101297.16;10307245;28;20059;-65
2023/02/15 23:45:20;;;;;;;49.25;33.13;;;;;;;3.66;85.16;101299.31;10305586;28;20046;-65
2023/02/15 23:50:27;;;;;;;51.13;34.10;;;;;;;3.44;86.15;101294.78;10306862;28;20444;-65
2023/02/15 23:55:35;;;;;;;50.92;32.65;;;;;;;3.35;86.76;101309.13;10301620;28;20047;-65
